Data for 03/25/2015

Time Sea-Level Adjusted Pressure Absolute Pressure Temperature Relative Humidity Dew Point   
(mb) (inHg) (mb) (inHg) (C) (F) (%) (C) (F)
00:05 1020 30.12 849 25.07 0.9 33.6 80 -2.2 28
00:10 1020 30.12 849 25.07 0.9 33.7 81 -2 28.4
00:15 1020 30.12 850 25.1 0.8 33.5 83 -1.8 28.8
00:20 1020 30.12 850 25.1 0.7 33.3 84 -1.7 29
00:25 1020 30.12 850 25.1 0.7 33.3 85 -1.6 29.2
00:30 1020 30.12 850 25.1 0.7 33.3 85 -1.5 29.3
00:35 1021 30.15 850 25.1 0.7 33.2 86 -1.4 29.4
00:40 1021 30.15 850 25.1 0.7 33.2 86 -1.5 29.3
00:45 1021 30.15 850 25.1 0.7 33.2 85 -1.6 29.1
00:50 1021 30.15 850 25.1 0.7 33.3 85 -1.5 29.4
00:55 1021 30.15 850 25.1 0.7 33.3 86 -1.4 29.5
01:00 1021 30.15 850 25.1 0.7 33.3 87 -1.3 29.7
01:05 1021 30.15 850 25.1 0.6 33.2 85 -1.6 29.2
01:10 1021 30.15 850 25.1 0.7 33.2 84 -1.7 29
01:15 1021 30.15 850 25.1 0.7 33.2 83 -1.9 28.6
01:20 1021 30.15 850 25.1 0.7 33.3 81 -2.2 28
01:25 1021 30.15 850 25.1 0.7 33.3 80 -2.3 27.8
01:30 1021 30.15 850 25.1 0.8 33.4 79 -2.5 27.5
01:35 1021 30.15 850 25.1 0.8 33.4 78 -2.5 27.4
01:40 1021 30.15 850 25.1 0.8 33.4 79 -2.5 27.4
01:45 1021 30.15 851 25.13 0.7 33.3 78 -2.6 27.3
01:50 1021 30.15 851 25.13 0.7 33.3 78 -2.6 27.2
01:55 1022 30.18 851 25.13 0.7 33.3 77 -2.8 27
02:00 1022 30.18 851 25.13 0.7 33.3 79 -2.6 27.4
02:05 1022 30.18 851 25.13 0.5 33 81 -2.3 27.9
02:10 1022 30.18 851 25.13 0.3 32.6 83 -2.2 28.1
02:15 1022 30.18 851 25.13 0.2 32.3 85 -2.1 28.2
02:20 1022 30.18 851 25.13 0.1 32.2 85 -2 28.4
02:25 1022 30.18 851 25.13 0.1 32.1 87 -1.9 28.6
02:30 1022 30.18 851 25.13 -0 31.9 88 -1.8 28.7
02:35 1022 30.18 851 25.13 -0.1 31.8 88 -1.8 28.8
02:40 1022 30.18 851 25.13 -0.2 31.7 89 -1.7 28.9
02:45 1022 30.18 851 25.13 -0.2 31.7 89 -1.7 28.9
02:50 1022 30.18 851 25.13 -0.2 31.6 89 -1.8 28.8
02:55 1022 30.18 851 25.13 -0.3 31.5 90 -1.7 29
03:00 1022 30.18 851 25.13 -0.3 31.5 91 -1.7 29
03:05 1022 30.18 851 25.13 -0.4 31.4 91 -1.6 29.1
03:10 1022 30.18 851 25.13 -0.4 31.3 92 -1.6 29.1
03:15 1022 30.18 851 25.13 -0.4 31.2 92 -1.6 29.2
03:20 1022 30.18 851 25.13 -0.5 31.2 92 -1.6 29.1
03:25 1022 30.18 851 25.13 -0.6 31 92 -1.6 29
03:30 1022 30.18 852 25.16 -0.6 30.9 92 -1.7 28.9
03:35 1022 30.18 852 25.16 -0.6 30.9 92 -1.8 28.8
03:40 1022 30.18 852 25.16 -0.6 30.9 91 -1.9 28.6
03:45 1022 30.18 852 25.16 -0.6 30.8 91 -1.9 28.6
03:50 1022 30.18 852 25.16 -0.6 30.9 90 -2 28.3
03:55 1022 30.18 852 25.16 -0.5 31.1 89 -2.1 28.3
04:00 1023 30.21 852 25.16 -0.5 31.2 89 -2 28.3
04:05 1023 30.21 852 25.16 -0.4 31.2 89 -2 28.3
04:10 1023 30.21 852 25.16 -0.4 31.3 89 -2 28.4
04:15 1023 30.21 852 25.16 -0.3 31.4 88 -2 28.3
04:20 1023 30.21 852 25.16 -0.3 31.5 89 -1.9 28.5
04:25 1023 30.21 852 25.16 -0.2 31.7 88 -1.9 28.7
04:30 1023 30.21 852 25.16 -0.1 31.8 88 -1.9 28.5
04:35 1023 30.21 852 25.16 -0.1 31.9 87 -1.9 28.5
04:40 1023 30.21 852 25.16 -0 31.9 88 -1.8 28.7
04:45 1023 30.21 852 25.16 -0.1 31.9 89 -1.7 28.9
04:50 1023 30.21 852 25.16 -0.1 31.8 89 -1.8 28.8
04:55 1023 30.21 852 25.16 -0.2 31.7 84 -2.5 27.6
05:00 1023 30.21 852 25.16 0.1 32.1 80 -3 26.6
05:05 1023 30.21 852 25.16 0.3 32.5 78 -3.1 26.5
05:10 1023 30.21 853 25.19 0.4 32.6 77 -3.1 26.4
05:15 1023 30.21 853 25.19 0.4 32.6 78 -3 26.5
05:20 1024 30.24 853 25.19 0.3 32.6 78 -3.1 26.3
05:25 1024 30.24 853 25.19 0.3 32.5 78 -3.2 26.3
05:30 1024 30.24 853 25.19 0.3 32.5 78 -3.1 26.4
05:35 1024 30.24 853 25.19 0.2 32.3 79 -3.1 26.4
05:40 1024 30.24 853 25.19 0.1 32.1 79 -3.1 26.4
05:45 1024 30.24 853 25.19 0 32 79 -3.2 26.2
05:50 1024 30.24 853 25.19 0 32 78 -3.4 25.9
05:55 1024 30.24 853 25.19 -0 32 77 -3.5 25.7
06:00 1024 30.24 853 25.19 0 32 77 -3.5 25.7
06:05 1024 30.24 853 25.19 0.1 32.1 78 -3.4 25.9
06:10 1024 30.24 853 25.19 0.1 32.2 76 -3.6 25.5
06:15 1024 30.24 853 25.19 0.1 32.1 76 -3.7 25.3
06:20 1024 30.24 853 25.19 0.1 32.1 76 -3.7 25.3
06:25 1024 30.24 853 25.19 0.1 32.1 76 -3.7 25.3
06:30 1024 30.24 853 25.19 0.1 32.1 76 -3.7 25.4
06:35 1024 30.24 853 25.19 0 32 76 -3.8 25.2
06:40 1024 30.24 853 25.19 0.1 32.2 75 -3.8 25.1
06:45 1024 30.24 853 25.19 0.2 32.4 74 -3.8 25.1
06:50 1024 30.24 853 25.19 0.3 32.5 75 -3.7 25.4
06:55 1024 30.24 853 25.19 0.4 32.8 74 -3.6 25.5
07:00 1024 30.24 853 25.19 0.5 32.9 74 -3.6 25.6
07:05 1024 30.24 853 25.19 0.6 33 71 -4 24.7
07:10 1024 30.24 853 25.19 0.5 33 72 -4 24.8
07:15 1024 30.24 853 25.19 0.6 33.1 71 -4.1 24.7
07:20 1024 30.24 853 25.19 0.7 33.2 71 -4 24.9
07:25 1024 30.24 854 25.22 0.8 33.4 68 -4.3 24.2
07:30 1024 30.24 854 25.22 1 33.7 67 -4.5 23.9
07:35 1024 30.24 854 25.22 1 33.9 66 -4.5 23.9
07:40 1024 30.24 854 25.22 1.1 34 66 -4.5 23.9
07:45 1024 30.24 854 25.22 1.2 34.1 65 -4.7 23.5
07:50 1024 30.24 854 25.22 1.2 34.2 64 -4.9 23.1
07:55 1024 30.24 854 25.22 1.3 34.3 65 -4.7 23.6
08:00 1024 30.24 853 25.19 1.3 34.3 64 -4.8 23.3
08:05 1024 30.24 853 25.19 1.4 34.6 62 -5 23
08:10 1024 30.24 854 25.22 1.7 35 61 -5.1 22.9
08:15 1024 30.24 854 25.22 1.8 35.3 59 -5.3 22.4
08:20 1025 30.27 854 25.22 2.1 35.8 59 -5.2 22.7
08:25 1025 30.27 854 25.22 2.3 36.1 58 -5 22.9
08:30 1025 30.27 854 25.22 2.3 36.2 58 -5.1 22.8
08:35 1025 30.27 854 25.22 2.3 36.1 58 -5.2 22.6
08:40 1025 30.27 854 25.22 2.7 36.8 57 -5.1 22.9
08:45 1025 30.27 854 25.22 2.8 37 53 -5.8 21.6
08:50 1025 30.27 854 25.22 2.8 37 52 -6 21.2
08:55 1025 30.27 854 25.22 3.2 37.7 52 -5.8 21.5
09:00 1025 30.27 854 25.22 3.7 38.7 48 -6.3 20.7
09:05 1025 30.27 854 25.22 3.5 38.3 47 -6.7 19.9
09:10 1025 30.27 854 25.22 3.5 38.3 47 -6.9 19.7
09:15 1025 30.27 854 25.22 3.5 38.3 51 -5.7 21.8
09:20 1025 30.27 854 25.22 3.7 38.7 50 -5.8 21.6
09:25 1025 30.27 854 25.22 3.9 39 50 -5.5 22.1
09:30 1025 30.27 854 25.22 4.1 39.3 49 -5.8 21.6
09:35 1025 30.27 854 25.22 4.4 40 50 -5.1 22.9
09:40 1025 30.27 855 25.25 4.4 40 53 -4.3 24.3
09:45 1025 30.27 855 25.25 4.4 39.9 53 -4.5 24
09:50 1025 30.27 855 25.25 4 39.2 52 -4.9 23.2
09:55 1026 30.3 855 25.25 3.5 38.3 54 -4.9 23.1
10:00 1026 30.3 855 25.25 3.9 39 52 -5.2 22.7
10:05 1026 30.3 855 25.25 4.6 40.3 47 -5.8 21.6
10:10 1026 30.3 855 25.25 4.7 40.5 48 -5.3 22.5
10:15 1026 30.3 855 25.25 4.3 39.7 51 -5 23
10:20 1026 30.3 855 25.25 4.1 39.3 53 -4.7 23.5
10:25 1026 30.3 855 25.25 4.2 39.6 52 -4.8 23.4
10:30 1026 30.3 855 25.25 5.5 41.8 49 -4.5 23.9
10:35 1025 30.27 855 25.25 5.6 42.2 49 -4.2 24.5
10:40 1025 30.27 855 25.25 4.9 40.8 53 -3.9 24.9
10:45 1025 30.27 855 25.25 4.8 40.6 51 -4.6 23.8
10:50 1025 30.27 855 25.25 5.2 41.3 50 -4.4 24.1
10:55 1025 30.27 855 25.25 5.3 41.5 53 -3.6 25.5
11:00 1025 30.27 855 25.25 4.8 40.6 54 -3.8 25.1
11:05 1025 30.27 854 25.22 5.1 41.2 51 -4.3 24.3
11:10 1025 30.27 854 25.22 4.8 40.6 53 -4 24.8
11:15 1025 30.27 854 25.22 5 40.9 53 -3.9 25
11:20 1025 30.27 854 25.22 5.1 41.3 44 -6.3 20.7
11:25 1025 30.27 854 25.22 4.9 40.9 42 -7 19.3
11:30 1025 30.27 854 25.22 5.2 41.4 40 -7.4 18.7
11:35 1025 30.27 854 25.22 5.2 41.3 42 -6.8 19.7
11:40 1025 30.27 854 25.22 5.2 41.4 42 -6.6 20.1
11:45 1025 30.27 854 25.22 5.6 42.1 38 -7.5 18.5
11:50 1025 30.27 854 25.22 5.8 42.4 36 -8.2 17.3
11:55 1025 30.27 854 25.22 5.8 42.5 37 -7.7 18.1
12:00 1025 30.27 854 25.22 5.9 42.5 37 -7.8 18
12:05 1025 30.27 854 25.22 5.8 42.5 36 -7.9 17.7
12:10 1025 30.27 854 25.22 6.1 43 37 -7.4 18.7
12:15 1025 30.27 854 25.22 6.2 43.2 37 -7.3 18.9
12:20 1025 30.27 854 25.22 6.2 43.2 37 -7.4 18.6
12:25 1025 30.27 854 25.22 6.3 43.4 34 -8.5 16.7
12:30 1025 30.27 854 25.22 6.2 43.1 37 -7.6 18.4
12:35 1025 30.27 854 25.22 6.3 43.3 36 -7.8 17.9
12:40 1025 30.27 854 25.22 6.9 44.4 34 -7.8 18
12:45 1025 30.27 854 25.22 6.4 43.6 33 -8.6 16.5
12:50 1025 30.27 854 25.22 6.5 43.7 33 -8.5 16.7
12:55 1025 30.27 854 25.22 6.6 43.9 34 -8 17.6
13:00 1025 30.27 854 25.22 7.2 45 33 -7.9 17.8
13:05 1024 30.24 854 25.22 7.4 45.4 33 -7.8 18
13:10 1024 30.24 854 25.22 7 44.5 32 -8.4 16.8
13:15 1024 30.24 853 25.19 7.6 45.7 33 -7.8 18
13:20 1024 30.24 853 25.19 8.2 46.8 29 -8.7 16.4
13:25 1024 30.24 853 25.19 8.2 46.8 30 -8.2 17.2
13:30 1024 30.24 853 25.19 8.2 46.8 29 -8.9 15.9
13:35 1024 30.24 853 25.19 8.1 46.5 27 -9.7 14.6
13:40 1024 30.24 853 25.19 7.7 45.9 28 -9.7 14.6
13:45 1024 30.24 853 25.19 7.6 45.6 28 -9.7 14.5
13:50 1024 30.24 853 25.19 8 46.3 29 -8.9 15.9
13:55 1024 30.24 853 25.19 8.1 46.7 28 -9.5 15
14:00 1024 30.24 853 25.19 7.9 46.2 29 -9 15.7
14:05 1024 30.24 853 25.19 8.1 46.6 29 -8.9 16
14:10 1024 30.24 853 25.19 8.5 47.2 28 -9.2 15.5
14:15 1024 30.24 853 25.19 8.6 47.4 27 -9.2 15.4
14:20 1024 30.24 853 25.19 8.6 47.4 26 -9.8 14.4
14:25 1024 30.24 853 25.19 8 46.3 27 -10 14
14:30 1023 30.21 853 25.19 8 46.4 26 -10.4 13.3
14:35 1023 30.21 853 25.19 8 46.3 28 -9.6 14.8
14:40 1023 30.21 853 25.19 8.5 47.2 27 -9.4 15.2
14:45 1023 30.21 852 25.16 9.2 48.6 27 -9.1 15.7
14:50 1023 30.21 852 25.16 9 48.3 26 -9.3 15.2
14:55 1023 30.21 852 25.16 8.3 47 27 -9.5 14.8
15:00 1023 30.21 852 25.16 8.4 47.1 26 -10 14
15:05 1023 30.21 852 25.16 9.5 49 25 -9.7 14.6
15:10 1023 30.21 852 25.16 9.1 48.4 25 -9.8 14.3
15:15 1023 30.21 852 25.16 8.7 47.6 27 -9.1 15.6
15:20 1023 30.21 852 25.16 8.7 47.7 27 -9.3 15.2
15:25 1023 30.21 852 25.16 8.7 47.7 27 -9 15.8
15:30 1023 30.21 852 25.16 8.7 47.6 28 -8.7 16.4
15:35 1023 30.21 852 25.16 8.4 47.1 28 -8.9 15.9
15:40 1023 30.21 852 25.16 8.3 46.9 29 -8.6 16.6
15:45 1023 30.21 852 25.16 8.3 46.9 29 -8.8 16.1
15:50 1023 30.21 852 25.16 8.2 46.8 29 -8.6 16.6
15:55 1023 30.21 852 25.16 8.5 47.3 29 -8.5 16.7
16:00 1023 30.21 852 25.16 8.4 47.2 30 -8.3 17
16:05 1023 30.21 852 25.16 8.3 47 30 -8.5 16.8
16:10 1023 30.21 852 25.16 8.1 46.6 30 -8.4 16.9
16:15 1023 30.21 852 25.16 7.8 46.1 31 -8.4 17
16:20 1023 30.21 852 25.16 8 46.4 31 -8.1 17.4
16:25 1023 30.21 852 25.16 7.7 45.9 33 -7.7 18.1
16:30 1023 30.21 852 25.16 7.6 45.7 32 -7.8 17.9
16:35 1023 30.21 852 25.16 7.7 45.9 32 -7.9 17.8
16:40 1023 30.21 852 25.16 8 46.4 32 -7.9 17.9
16:45 1023 30.21 852 25.16 8.2 46.8 31 -8.1 17.5
16:50 1023 30.21 852 25.16 8.3 46.9 30 -8.4 16.8
16:55 1023 30.21 852 25.16 8.3 46.9 28 -9.2 15.4
17:00 1023 30.21 852 25.16 8.1 46.6 27 -9.7 14.6
17:05 1023 30.21 852 25.16 8.4 47 26 -10 13.9
17:10 1023 30.21 852 25.16 8.5 47.2 27 -9.4 15.1
17:15 1023 30.21 852 25.16 8.4 47.2 28 -9.3 15.3
17:20 1023 30.21 852 25.16 8.3 47 27 -9.4 15.1
17:25 1023 30.21 852 25.16 8.2 46.8 28 -9.2 15.4
17:30 1023 30.21 852 25.16 8.1 46.6 28 -9.1 15.6
17:35 1023 30.21 852 25.16 8.1 46.6 27 -9.8 14.4
17:40 1023 30.21 852 25.16 8.2 46.7 27 -9.6 14.8
17:45 1023 30.21 852 25.16 8.2 46.7 26 -10.1 13.8
17:50 1023 30.21 852 25.16 8.2 46.7 27 -9.9 14.2
17:55 1023 30.21 852 25.16 8.1 46.5 27 -9.7 14.6
18:00 1023 30.21 852 25.16 8.1 46.5 27 -9.9 14.2
18:05 1022 30.18 852 25.16 7.9 46.3 26 -10.3 13.4
18:10 1022 30.18 852 25.16 7.9 46.2 27 -10 13.9
18:15 1023 30.21 852 25.16 7.9 46.2 28 -9.6 14.8
18:20 1023 30.21 852 25.16 7.7 45.9 29 -9.3 15.2
18:25 1023 30.21 852 25.16 7.5 45.5 29 -9.6 14.7
18:30 1023 30.21 852 25.16 7.4 45.3 29 -9.4 15.1
18:35 1023 30.21 852 25.16 7.3 45.1 30 -9.2 15.4
18:40 1023 30.21 852 25.16 7.1 44.8 30 -9.1 15.6
18:45 1023 30.21 852 25.16 7 44.6 30 -9.4 15.2
18:50 1023 30.21 852 25.16 7 44.6 31 -9 15.8
18:55 1023 30.21 852 25.16 6.8 44.3 31 -9 15.9
19:00 1023 30.21 852 25.16 6.8 44.3 31 -9.2 15.5
19:05 1023 30.21 852 25.16 6.8 44.3 31 -9.3 15.2
19:10 1023 30.21 852 25.16 6.9 44.3 31 -9.3 15.3
19:15 1023 30.21 852 25.16 7 44.6 30 -9.6 14.8
19:20 1023 30.21 852 25.16 7.1 44.8 30 -9.4 15
19:25 1023 30.21 852 25.16 7.2 44.9 30 -9.3 15.2
19:30 1023 30.21 852 25.16 7.1 44.7 31 -8.8 16.1
19:35 1023 30.21 852 25.16 6.9 44.4 31 -9.2 15.4
19:40 1023 30.21 853 25.19 7.1 44.7 31 -8.9 15.9
19:45 1023 30.21 853 25.19 7 44.7 32 -8.4 16.8
19:50 1023 30.21 853 25.19 6.9 44.4 31 -8.9 15.9
19:55 1024 30.24 853 25.19 7.1 44.7 31 -8.8 16.2
20:00 1024 30.24 853 25.19 7.1 44.8 31 -8.8 16.2
20:05 1024 30.24 853 25.19 7.1 44.9 31 -9 15.9
20:10 1024 30.24 853 25.19 7.3 45.1 31 -8.9 15.9
20:15 1024 30.24 853 25.19 7.4 45.2 30 -9.2 15.4
20:20 1024 30.24 853 25.19 7.4 45.2 30 -9.2 15.4
20:25 1024 30.24 853 25.19 7.3 45.2 31 -8.8 16.2
20:30 1024 30.24 853 25.19 7.2 45 32 -8.4 17
20:35 1024 30.24 853 25.19 7.2 44.9 33 -8 17.6
20:40 1024 30.24 853 25.19 7.2 44.9 34 -7.8 18
20:45 1024 30.24 853 25.19 7.2 45 35 -7.3 18.9
20:50 1024 30.24 853 25.19 7.3 45.1 36 -6.7 19.9
20:55 1024 30.24 853 25.19 7.3 45.1 37 -6.4 20.5
21:00 1024 30.24 853 25.19 7.3 45.1 38 -6.2 20.8
21:05 1024 30.24 853 25.19 7.3 45.2 37 -6.3 20.6
21:10 1024 30.24 853 25.19 7.4 45.3 37 -6.5 20.3
21:15 1024 30.24 853 25.19 7.3 45.2 37 -6.3 20.6
21:20 1024 30.24 853 25.19 7.3 45.1 37 -6.3 20.6
21:25 1024 30.24 853 25.19 7.2 44.9 38 -6.2 20.8
21:30 1024 30.24 853 25.19 7.1 44.7 38 -6.2 20.9
21:35 1024 30.24 853 25.19 7 44.6 41 -5.3 22.5
21:40 1024 30.24 853 25.19 6.6 43.9 42 -5.5 22.1
21:45 1024 30.24 853 25.19 6.5 43.7 42 -5.6 21.9
21:50 1024 30.24 853 25.19 6.5 43.7 41 -5.7 21.8
21:55 1024 30.24 854 25.22 6.6 43.9 40 -5.9 21.3
22:00 1025 30.27 854 25.22 6.7 44.1 40 -5.8 21.6
22:05 1025 30.27 854 25.22 6.7 44.1 41 -5.6 22
22:10 1025 30.27 854 25.22 6.7 44 42 -5.3 22.4
22:15 1025 30.27 854 25.22 6.6 43.9 42 -5.3 22.5
22:20 1025 30.27 854 25.22 6.4 43.6 43 -5.1 22.7
22:25 1025 30.27 854 25.22 6.3 43.3 44 -5 23
22:30 1025 30.27 854 25.22 6.2 43.2 45 -4.8 23.4
22:35 1025 30.27 854 25.22 6 42.8 47 -4.5 24
22:40 1025 30.27 854 25.22 6 42.7 48 -4.3 24.2
22:45 1025 30.27 854 25.22 6 42.8 48 -4.3 24.3
22:50 1025 30.27 854 25.22 6 42.7 48 -4.3 24.2
22:55 1025 30.27 854 25.22 6 42.7 48 -4.3 24.2
23:00 1025 30.27 854 25.22 6 42.8 48 -4.3 24.3
23:05 1024 30.24 854 25.22 6 42.8 47 -4.4 24.1
23:10 1024 30.24 854 25.22 6 42.8 47 -4.6 23.8
23:15 1024 30.24 854 25.22 6 42.8 47 -4.4 24.1
23:20 1025 30.27 854 25.22 6.1 42.9 47 -4.3 24.3
23:25 1025 30.27 854 25.22 6.1 43 47 -4.3 24.3
23:30 1025 30.27 854 25.22 6 42.9 47 -4.3 24.3
23:35 1025 30.27 854 25.22 6 42.7 48 -4.3 24.3
23:40 1025 30.27 854 25.22 6 42.8 48 -4.3 24.3
23:45 1025 30.27 854 25.22 5.9 42.6 48 -4.1 24.6
23:50 1025 30.27 854 25.22 6 42.7 48 -4.4 24.2
23:55 1025 30.27 854 25.22 6 42.9 48 -4.3 24.3
24:00 1025 30.27 854 25.22 6 42.9 46 -4.6 23.7